createdAt,value
2023-05-05T00:00:02.710Z,79.70
2023-05-05T00:02:53.344Z,79.93
2023-05-05T00:05:21.810Z,80.01
2023-05-05T00:07:49.868Z,80.06
2023-05-05T00:10:18.447Z,80.05
2023-05-05T00:12:46.864Z,79.97
2023-05-05T00:15:14.937Z,79.94
2023-05-05T00:17:42.994Z,79.79
2023-05-05T00:20:11.614Z,79.74
2023-05-05T00:22:39.555Z,79.67
2023-05-05T00:25:07.870Z,79.59
2023-05-05T00:27:36.500Z,79.77
2023-05-05T00:30:06.459Z,80.08
2023-05-05T00:32:34.784Z,80.09
2023-05-05T00:35:02.831Z,80.06
2023-05-05T00:37:30.815Z,80.06
2023-05-05T00:40:18.850Z,80.18
2023-05-05T00:42:50.644Z,80.10
2023-05-05T00:45:20.127Z,79.85
2023-05-05T00:47:52.047Z,79.56
2023-05-05T00:50:31.007Z,79.47
2023-05-05T00:53:02.819Z,79.52
2023-05-05T00:55:31.913Z,79.45
2023-05-05T00:58:01.245Z,79.40
2023-05-05T01:00:30.254Z,79.21
2023-05-05T01:02:59.998Z,79.14
2023-05-05T01:05:41.902Z,79.12
2023-05-05T01:08:41.199Z,79.03
2023-05-05T01:11:53.686Z,78.93
2023-05-05T01:14:39.699Z,78.86
2023-05-05T01:17:19.529Z,78.83
2023-05-05T01:20:06.308Z,78.72
2023-05-05T01:22:47.645Z,78.78
2023-05-05T01:25:59.981Z,78.92
2023-05-05T01:28:38.412Z,78.98
2023-05-05T01:31:17.035Z,79.01
2023-05-05T01:33:59.713Z,79.31
2023-05-05T01:36:36.219Z,79.30
2023-05-05T01:39:06.806Z,79.30
2023-05-05T01:41:47.279Z,79.41
2023-05-05T01:44:16.923Z,79.42
2023-05-05T01:46:49.197Z,79.59
2023-05-05T01:49:17.525Z,79.51
2023-05-05T01:51:48.741Z,79.74
2023-05-05T01:54:18.785Z,80.06
2023-05-05T01:56:49.203Z,80.17
2023-05-05T01:59:19.724Z,80.19
2023-05-05T02:01:49.516Z,80.37
2023-05-05T02:04:22.822Z,80.76
2023-05-05T02:06:53.351Z,80.90
2023-05-05T02:09:25.550Z,80.93
2023-05-05T02:11:57.135Z,81.10
2023-05-05T02:14:27.923Z,81.12
2023-05-05T02:16:58.376Z,81.17
2023-05-05T02:19:34.517Z,81.35
2023-05-05T02:22:03.103Z,81.50
2023-05-05T02:24:31.264Z,81.54
2023-05-05T02:27:02.493Z,81.63
2023-05-05T02:29:44.864Z,81.65
2023-05-05T02:32:24.240Z,81.63
2023-05-05T02:34:53.972Z,81.71
2023-05-05T02:37:26.749Z,81.67
2023-05-05T02:40:06.176Z,81.72
2023-05-05T02:42:41.679Z,81.69
2023-05-05T02:45:15.293Z,81.72
2023-05-05T02:47:46.012Z,81.66
2023-05-05T02:50:15.913Z,81.85
2023-05-05T02:52:50.460Z,81.70
2023-05-05T02:55:18.851Z,81.74
2023-05-05T02:58:13.674Z,81.93
2023-05-05T03:01:03.792Z,81.95
2023-05-05T03:03:41.072Z,81.93
2023-05-05T03:06:21.778Z,81.76
2023-05-05T03:08:57.664Z,81.86
2023-05-05T03:11:34.867Z,81.82
2023-05-05T03:14:10.224Z,81.96
2023-05-05T03:16:41.114Z,81.87
2023-05-05T03:19:13.635Z,81.91
2023-05-05T03:21:42.445Z,81.98
2023-05-05T03:24:18.517Z,82.20
2023-05-05T03:26:51.403Z,82.39
2023-05-05T03:29:21.277Z,82.35
2023-05-05T03:31:49.575Z,82.45
2023-05-05T03:34:18.498Z,82.61
2023-05-05T03:36:47.469Z,82.72
2023-05-05T03:39:16.472Z,83.08
2023-05-05T03:41:44.571Z,83.94
2023-05-05T03:44:13.448Z,84.12
2023-05-05T03:46:41.449Z,84.32
2023-05-05T03:49:10.839Z,84.57
2023-05-05T03:51:39.706Z,84.77
2023-05-05T03:54:08.350Z,85.54
2023-05-05T03:56:37.446Z,86.51
2023-05-05T03:59:05.417Z,86.21
2023-05-05T04:01:35.341Z,86.12
2023-05-05T04:04:03.484Z,86.24
2023-05-05T04:06:32.260Z,86.49
2023-05-05T04:09:00.218Z,86.58
2023-05-05T04:11:28.747Z,86.61
2023-05-05T04:13:57.195Z,86.77
2023-05-05T04:16:26.183Z,86.81
2023-05-05T04:18:55.493Z,86.58
2023-05-05T04:21:23.512Z,86.63
2023-05-05T04:23:52.706Z,86.25
2023-05-05T04:26:21.173Z,85.81
2023-05-05T04:28:49.743Z,85.90
2023-05-05T04:31:18.421Z,86.14
2023-05-05T04:33:46.929Z,86.46
2023-05-05T04:36:15.154Z,86.69
2023-05-05T04:38:43.108Z,86.76
2023-05-05T04:41:11.923Z,86.59
2023-05-05T04:43:41.080Z,86.47
2023-05-05T04:46:09.068Z,86.23
2023-05-05T04:48:37.981Z,86.51
2023-05-05T04:51:07.548Z,86.78
2023-05-05T04:53:36.099Z,86.78
2023-05-05T04:56:04.281Z,86.89
2023-05-05T04:58:32.338Z,86.46
2023-05-05T05:01:00.265Z,86.21
2023-05-05T05:03:28.309Z,85.98
2023-05-05T05:05:56.570Z,86.07
2023-05-05T05:08:24.490Z,85.94
2023-05-05T05:10:52.527Z,85.88
2023-05-05T05:13:20.662Z,85.85
2023-05-05T05:15:48.832Z,85.80
2023-05-05T05:18:17.591Z,85.57
2023-05-05T05:20:46.234Z,85.50
2023-05-05T05:23:14.468Z,85.17
2023-05-05T05:25:44.436Z,84.47
2023-05-05T05:28:12.458Z,84.31
2023-05-05T05:30:45.060Z,84.16
2023-05-05T05:33:13.504Z,83.88
2023-05-05T05:35:41.942Z,83.66
2023-05-05T05:38:10.496Z,83.54
2023-05-05T05:40:38.573Z,82.96
2023-05-05T05:43:07.133Z,82.70
2023-05-05T05:45:35.437Z,82.51
2023-05-05T05:48:04.612Z,82.30
2023-05-05T05:50:32.954Z,82.34
2023-05-05T05:53:01.128Z,82.25
2023-05-05T05:55:29.524Z,81.95
2023-05-05T05:57:57.760Z,82.18
2023-05-05T06:00:26.207Z,82.16
2023-05-05T06:02:57.606Z,82.11
2023-05-05T06:05:27.680Z,82.26
2023-05-05T06:07:55.998Z,82.60
2023-05-05T06:10:27.194Z,82.64
2023-05-05T06:13:00.184Z,82.69
2023-05-05T06:15:28.221Z,82.80
2023-05-05T06:17:57.323Z,82.23
2023-05-05T06:20:25.471Z,81.60
2023-05-05T06:22:53.625Z,81.90
2023-05-05T06:25:22.040Z,81.87
2023-05-05T06:27:50.184Z,81.60
2023-05-05T06:30:18.182Z,81.43
2023-05-05T06:32:46.121Z,80.71
2023-05-05T06:35:14.020Z,80.47
2023-05-05T06:37:42.085Z,79.86
2023-05-05T06:40:10.726Z,79.37
2023-05-05T06:42:38.970Z,79.39
2023-05-05T06:45:09.555Z,79.03
2023-05-05T06:47:37.912Z,78.61
2023-05-05T06:50:07.556Z,77.04
2023-05-05T06:52:35.645Z,77.04
2023-05-05T06:55:04.580Z,76.85
2023-05-05T06:57:32.499Z,76.22
2023-05-05T07:00:00.504Z,76.23
2023-05-05T07:02:28.663Z,75.58
2023-05-05T07:04:56.733Z,75.40
2023-05-05T07:07:24.597Z,75.70
2023-05-05T07:09:52.642Z,75.10
2023-05-05T07:12:20.992Z,74.14
2023-05-05T07:14:48.890Z,74.57
2023-05-05T07:17:16.725Z,74.35
2023-05-05T07:19:44.581Z,74.21
2023-05-05T07:22:12.403Z,73.33
2023-05-05T07:24:40.438Z,73.83
2023-05-05T07:27:08.494Z,74.49
2023-05-05T07:29:36.433Z,73.36
2023-05-05T07:32:04.478Z,73.14
2023-05-05T07:34:34.605Z,73.38
2023-05-05T07:37:03.521Z,72.89
2023-05-05T07:39:31.397Z,72.64
2023-05-05T07:41:59.366Z,72.48
2023-05-05T07:44:27.713Z,71.46
2023-05-05T07:46:56.124Z,70.37
2023-05-05T07:49:24.157Z,70.99
2023-05-05T07:51:51.946Z,70.20
2023-05-05T07:54:19.840Z,69.71
2023-05-05T07:56:47.859Z,69.77
2023-05-05T07:59:15.750Z,69.29
2023-05-05T08:01:43.630Z,69.56
2023-05-05T08:04:11.664Z,69.58
2023-05-05T08:06:40.077Z,68.87
2023-05-05T08:09:08.010Z,67.66
2023-05-05T08:11:35.872Z,66.35
2023-05-05T08:14:03.878Z,65.87
2023-05-05T08:16:31.882Z,66.70
2023-05-05T08:18:59.880Z,66.42
2023-05-05T08:21:27.778Z,64.89
2023-05-05T08:23:55.833Z,62.32
2023-05-05T08:26:24.212Z,62.62
2023-05-05T08:28:55.365Z,62.04
2023-05-05T08:31:23.250Z,60.71
2023-05-05T08:33:51.184Z,60.38
2023-05-05T08:36:19.153Z,60.52
2023-05-05T08:38:47.654Z,59.15
2023-05-05T08:41:18.726Z,58.45
2023-05-05T08:43:48.222Z,57.74
2023-05-05T08:46:17.254Z,56.90
2023-05-05T08:48:46.085Z,56.67
2023-05-05T08:51:18.256Z,56.30
2023-05-05T08:53:55.026Z,56.55
2023-05-05T08:56:27.223Z,55.32
2023-05-05T08:58:57.322Z,55.09
2023-05-05T09:01:25.718Z,55.01
2023-05-05T09:03:53.817Z,54.52
2023-05-05T09:06:22.501Z,53.77
2023-05-05T09:08:50.941Z,53.74
2023-05-05T09:11:19.465Z,53.01
2023-05-05T09:13:47.562Z,52.85
2023-05-05T09:16:16.028Z,53.67
2023-05-05T09:18:45.639Z,53.52
2023-05-05T09:21:24.915Z,52.69
2023-05-05T09:24:10.078Z,52.10
2023-05-05T09:26:42.853Z,51.68
2023-05-05T09:29:18.542Z,50.53
2023-05-05T09:32:05.591Z,50.15
2023-05-05T09:34:35.462Z,49.28
2023-05-05T09:37:03.863Z,49.72
2023-05-05T09:39:31.954Z,49.88
2023-05-05T09:42:00.110Z,50.84
2023-05-05T09:44:36.642Z,51.07
2023-05-05T09:47:09.522Z,50.82
2023-05-05T09:49:40.505Z,49.13
2023-05-05T09:52:48.424Z,48.26
2023-05-05T09:55:19.535Z,48.99
2023-05-05T09:57:48.121Z,48.90
2023-05-05T10:00:17.024Z,48.85
2023-05-05T10:03:05.988Z,48.69
2023-05-05T10:05:50.697Z,48.71
2023-05-05T10:09:41.513Z,47.20
2023-05-05T10:12:50.216Z,46.38
2023-05-05T10:15:42.098Z,46.13
2023-05-05T10:18:33.572Z,46.54
2023-05-05T10:21:25.263Z,47.12
2023-05-05T10:24:40.732Z,46.24
2023-05-05T10:28:15.401Z,45.34
2023-05-05T10:31:49.012Z,45.12
2023-05-05T10:35:16.121Z,45.05
2023-05-05T10:38:45.846Z,45.17
2023-05-05T10:42:28.367Z,44.68
2023-05-05T10:46:14.958Z,43.88
2023-05-05T11:20:11.595Z,39.84
2023-05-05T11:23:02.464Z,40.50
2023-05-05T11:29:42.135Z,40.37
2023-05-05T11:33:11.091Z,40.61
2023-05-05T11:36:56.674Z,41.98
2023-05-05T11:40:21.462Z,42.70
2023-05-05T11:43:09.687Z,43.11
2023-05-05T11:45:38.501Z,43.54
2023-05-05T11:49:06.468Z,43.99
2023-05-05T11:52:23.139Z,42.48
2023-05-05T11:55:11.204Z,42.82
2023-05-05T11:58:39.638Z,42.31
2023-05-05T12:14:29.676Z,39.79
2023-05-05T12:17:42.794Z,39.67
2023-05-05T12:21:10.708Z,39.13
2023-05-05T12:24:33.701Z,39.62
2023-05-05T12:27:31.621Z,37.39
2023-05-05T12:30:20.576Z,36.74
2023-05-05T12:33:09.053Z,38.36
2023-05-05T12:35:57.572Z,38.03
2023-05-05T12:38:25.643Z,37.95
2023-05-05T12:40:55.768Z,38.27
2023-05-05T12:44:05.469Z,37.88
2023-05-05T12:47:53.616Z,37.80
2023-05-05T12:50:55.735Z,37.82
2023-05-05T12:54:11.391Z,37.55
2023-05-05T12:56:42.108Z,37.58
2023-05-05T13:54:48.340Z,36.74
2023-05-05T13:57:17.007Z,36.45
2023-05-05T13:59:45.107Z,36.67
2023-05-05T14:02:14.041Z,36.87
2023-05-05T14:04:42.133Z,36.21
2023-05-05T14:07:30.012Z,35.89
2023-05-05T14:09:58.081Z,36.50
2023-05-05T14:12:46.133Z,36.79
2023-05-05T14:15:14.120Z,36.35
2023-05-05T14:17:42.143Z,35.86
2023-05-05T14:20:10.611Z,35.69
2023-05-05T14:22:38.794Z,36.39
2023-05-05T14:25:07.492Z,35.99
2023-05-05T14:27:35.665Z,36.40
2023-05-05T14:30:05.557Z,36.59
2023-05-05T14:32:33.806Z,37.10
2023-05-05T14:35:01.960Z,36.50
2023-05-05T14:37:30.038Z,36.30
2023-05-05T14:39:58.282Z,36.10
2023-05-05T14:42:26.734Z,35.92
2023-05-05T14:44:54.624Z,35.67
2023-05-05T14:47:22.690Z,35.89
2023-05-05T14:49:50.950Z,35.59
2023-05-05T14:52:18.929Z,36.51
2023-05-05T14:54:47.117Z,36.67
2023-05-05T14:57:15.256Z,37.01
2023-05-05T14:59:43.261Z,37.64
2023-05-05T15:02:11.230Z,36.92
2023-05-05T15:04:39.884Z,36.72
2023-05-05T15:07:07.749Z,36.31
2023-05-05T15:09:35.767Z,36.29
2023-05-05T15:12:03.998Z,36.27
2023-05-05T15:14:32.064Z,36.26
2023-05-05T15:17:00.040Z,36.24
2023-05-05T15:19:29.539Z,36.37
2023-05-05T15:21:57.671Z,36.56
2023-05-05T15:24:26.101Z,36.18
2023-05-05T15:26:54.217Z,35.61
2023-05-05T15:29:22.219Z,36.22
2023-05-05T15:31:50.176Z,36.31
2023-05-05T15:34:18.078Z,36.00
2023-05-05T15:36:46.037Z,36.14
2023-05-05T15:39:13.979Z,36.58
2023-05-05T15:41:41.859Z,36.23
2023-05-05T15:44:12.323Z,36.42
2023-05-05T15:46:40.935Z,36.78
2023-05-05T15:49:09.024Z,36.87
2023-05-05T15:51:37.061Z,36.77
2023-05-05T15:54:05.696Z,36.82
2023-05-05T15:56:33.915Z,36.58
2023-05-05T15:59:03.480Z,36.76
2023-05-05T16:01:33.770Z,36.77
2023-05-05T16:04:02.038Z,36.75
2023-05-05T16:06:29.991Z,36.67
2023-05-05T16:08:58.755Z,37.21
2023-05-05T16:11:26.996Z,37.76
2023-05-05T16:13:55.361Z,37.83
2023-05-05T16:16:23.486Z,37.58
2023-05-05T16:18:51.689Z,37.10
2023-05-05T16:21:19.652Z,37.33
2023-05-05T16:23:47.558Z,37.38
2023-05-05T16:26:15.686Z,37.55
2023-05-05T16:28:43.601Z,37.91
2023-05-05T16:31:11.623Z,37.87
2023-05-05T16:33:41.356Z,37.49
2023-05-05T16:36:13.006Z,37.54
2023-05-05T16:38:41.158Z,37.74
2023-05-05T16:41:10.913Z,38.28
2023-05-05T16:43:38.916Z,38.72
2023-05-05T16:46:06.928Z,38.97
2023-05-05T16:48:34.866Z,39.20
2023-05-05T16:51:03.269Z,39.51
2023-05-05T16:53:31.367Z,39.87
2023-05-05T16:55:59.642Z,40.08
2023-05-05T16:58:27.577Z,40.35
2023-05-05T17:00:55.502Z,40.47
2023-05-05T17:03:23.398Z,40.81
2023-05-05T17:05:53.027Z,41.09
2023-05-05T17:08:21.164Z,41.48
2023-05-05T17:10:49.113Z,41.83
2023-05-05T17:13:17.114Z,41.93
2023-05-05T17:15:45.073Z,42.23
2023-05-05T17:18:12.869Z,42.58
2023-05-05T17:20:40.866Z,42.70
2023-05-05T17:23:08.892Z,43.07
2023-05-05T17:25:37.089Z,43.14
2023-05-05T17:28:05.407Z,43.13
2023-05-05T17:30:33.346Z,43.42
2023-05-05T17:33:01.292Z,43.55
2023-05-05T17:35:29.782Z,43.70
2023-05-05T17:37:57.676Z,43.95
2023-05-05T17:40:25.496Z,44.17
2023-05-05T17:42:53.533Z,44.32
2023-05-05T17:45:21.582Z,44.52
2023-05-05T17:47:49.712Z,44.60
2023-05-05T17:50:17.615Z,44.86
2023-05-05T17:52:46.667Z,44.93
2023-05-05T17:55:14.646Z,45.11
2023-05-05T17:57:42.863Z,45.29
2023-05-05T18:00:11.376Z,45.60
2023-05-05T18:02:42.459Z,45.69
2023-05-05T18:05:10.784Z,45.82
2023-05-05T18:07:39.284Z,46.10
2023-05-05T18:10:08.458Z,46.19
2023-05-05T18:12:37.179Z,46.41
2023-05-05T18:15:05.767Z,46.59
2023-05-05T18:17:33.827Z,46.81
2023-05-05T18:20:01.893Z,46.90
2023-05-05T18:22:30.030Z,47.13
2023-05-05T18:24:59.734Z,47.07
2023-05-05T18:27:28.786Z,47.26
2023-05-05T18:29:56.855Z,47.49
2023-05-05T18:32:24.825Z,47.59
2023-05-05T18:34:52.856Z,47.67
2023-05-05T18:37:20.842Z,47.61
2023-05-05T18:39:49.249Z,47.74
2023-05-05T18:42:17.192Z,48.11
2023-05-05T18:44:45.234Z,48.44
2023-05-05T18:47:13.268Z,48.63
2023-05-05T18:49:41.234Z,48.75
2023-05-05T18:52:09.221Z,48.95
2023-05-05T18:54:37.962Z,49.01
2023-05-05T18:57:06.053Z,49.11
2023-05-05T18:59:34.061Z,49.26
2023-05-05T19:02:02.889Z,49.42
2023-05-05T19:04:32.745Z,49.57
2023-05-05T19:07:00.934Z,49.73
2023-05-05T19:09:28.841Z,49.82
2023-05-05T19:11:56.871Z,49.91
2023-05-05T19:14:25.827Z,49.97
2023-05-05T19:16:55.945Z,50.11
2023-05-05T19:19:25.039Z,50.24
2023-05-05T19:21:52.970Z,50.34
2023-05-05T19:24:21.129Z,50.36
2023-05-05T19:26:49.222Z,50.61
2023-05-05T19:29:17.286Z,50.69
2023-05-05T19:31:45.346Z,50.87
2023-05-05T19:34:16.208Z,51.26
2023-05-05T19:36:44.286Z,51.46
2023-05-05T19:39:13.707Z,51.63
2023-05-05T19:41:43.288Z,51.86
2023-05-05T19:44:13.480Z,51.96
2023-05-05T19:46:41.408Z,52.05
2023-05-05T19:49:09.305Z,52.20
2023-05-05T19:51:37.283Z,52.19
2023-05-05T19:54:25.224Z,52.32
2023-05-05T19:57:13.187Z,52.37
2023-05-05T19:59:41.865Z,52.43
2023-05-05T20:02:11.515Z,52.50
2023-05-05T20:04:39.478Z,52.51
2023-05-05T20:07:07.487Z,52.56
2023-05-05T20:09:36.009Z,52.68
2023-05-05T20:12:04.263Z,52.74
2023-05-05T20:14:32.452Z,52.95
2023-05-05T20:17:00.465Z,53.00
2023-05-05T20:19:28.551Z,53.06
2023-05-05T20:21:57.135Z,53.16
2023-05-05T20:24:25.136Z,53.30
2023-05-05T20:26:53.094Z,53.40
2023-05-05T20:29:21.733Z,53.47
2023-05-05T20:31:49.747Z,53.54
2023-05-05T20:34:18.219Z,53.73
2023-05-05T20:36:46.260Z,53.81
2023-05-05T20:39:16.040Z,53.90
2023-05-05T20:41:44.082Z,54.02
2023-05-05T20:44:12.162Z,54.05
2023-05-05T20:46:40.223Z,54.32
2023-05-05T20:49:08.092Z,54.50
2023-05-05T20:51:35.994Z,54.63
2023-05-05T20:54:04.258Z,54.67
2023-05-05T20:56:32.233Z,54.75
2023-05-05T20:59:00.144Z,54.91
2023-05-05T21:01:28.602Z,55.05
2023-05-05T21:03:56.652Z,55.17
2023-05-05T21:06:24.769Z,55.28
2023-05-05T21:08:52.817Z,55.58
2023-05-05T21:11:21.515Z,55.83
2023-05-05T21:13:49.532Z,55.93
2023-05-05T21:16:17.761Z,55.99
2023-05-05T21:18:47.323Z,56.18
2023-05-05T21:21:15.241Z,56.37
2023-05-05T21:23:46.967Z,56.48
2023-05-05T21:26:14.925Z,56.43
2023-05-05T21:28:42.879Z,56.54
2023-05-05T21:31:21.852Z,56.83
2023-05-05T21:33:50.642Z,57.27
2023-05-05T21:36:19.551Z,57.41
2023-05-05T21:38:48.274Z,57.43
2023-05-05T21:41:16.919Z,57.49
2023-05-05T21:44:05.225Z,57.61
2023-05-05T21:46:33.486Z,57.77
2023-05-05T21:49:13.256Z,58.14
2023-05-05T21:51:42.364Z,58.38
2023-05-05T21:54:11.139Z,58.44
2023-05-05T21:56:39.091Z,58.74
2023-05-05T21:59:07.085Z,59.01
2023-05-05T22:01:35.134Z,59.11
2023-05-05T22:04:03.114Z,59.30
2023-05-05T22:06:32.495Z,59.48
2023-05-05T22:09:00.564Z,59.80
2023-05-05T22:11:28.605Z,59.89
2023-05-05T22:13:57.133Z,59.99
2023-05-05T22:16:25.238Z,60.04
2023-05-05T22:19:13.262Z,60.18
2023-05-05T22:21:41.204Z,60.37
2023-05-05T22:24:09.137Z,60.61
2023-05-05T22:26:39.781Z,60.77
2023-05-05T22:29:07.777Z,60.88
2023-05-05T22:31:37.453Z,61.08
2023-05-05T22:34:05.473Z,61.50
2023-05-05T22:36:33.693Z,61.70
2023-05-05T22:39:01.584Z,61.81
2023-05-05T22:41:29.479Z,61.95
2023-05-05T22:43:57.404Z,62.20
2023-05-05T22:46:25.408Z,62.29
2023-05-05T22:48:54.336Z,62.45
2023-05-05T22:51:22.534Z,62.70
2023-05-05T22:53:51.178Z,62.75
2023-05-05T22:56:19.352Z,63.01
2023-05-05T22:58:47.242Z,63.11
2023-05-05T23:01:15.643Z,63.46
2023-05-05T23:03:43.696Z,63.68
2023-05-05T23:06:11.589Z,63.82
2023-05-05T23:08:39.565Z,64.05
2023-05-05T23:11:07.704Z,64.22
2023-05-05T23:13:35.718Z,64.35
2023-05-05T23:16:04.056Z,64.67
2023-05-05T23:18:31.931Z,64.93
2023-05-05T23:21:00.424Z,65.23
2023-05-05T23:23:28.422Z,65.40
2023-05-05T23:25:56.514Z,65.60
2023-05-05T23:28:24.511Z,65.97
2023-05-05T23:30:52.518Z,66.32
2023-05-05T23:33:20.477Z,66.83
2023-05-05T23:35:48.514Z,66.96
2023-05-05T23:38:16.483Z,67.37
2023-05-05T23:40:44.442Z,67.43
2023-05-05T23:43:12.323Z,67.57
2023-05-05T23:45:40.606Z,67.63
2023-05-05T23:48:08.691Z,67.88
2023-05-05T23:50:36.624Z,68.00
2023-05-05T23:53:04.491Z,68.04
2023-05-05T23:55:32.456Z,67.88
2023-05-05T23:58:00.390Z,68.21
